createdAt,value
2019-03-26T00:00:09.489Z,44.32
2019-03-26T00:05:12.948Z,44.35
2019-03-26T00:10:16.404Z,44.30
2019-03-26T00:15:19.865Z,44.28
2019-03-26T00:20:23.321Z,44.34
2019-03-26T00:25:26.779Z,44.35
2019-03-26T00:30:30.239Z,44.38
2019-03-26T00:35:33.695Z,44.35
2019-03-26T00:40:40.058Z,44.42
2019-03-26T00:45:42.345Z,44.40
2019-03-26T00:50:45.876Z,44.35
2019-03-26T00:55:49.348Z,44.36
2019-03-26T01:00:52.803Z,44.40
2019-03-26T01:05:56.265Z,44.41
2019-03-26T01:10:59.724Z,44.43
2019-03-26T01:16:03.356Z,44.41
2019-03-26T01:21:06.816Z,44.37
2019-03-26T01:26:10.278Z,44.43
2019-03-26T01:31:13.737Z,44.37
2019-03-26T01:36:17.198Z,44.39
2019-03-26T01:41:20.655Z,44.46
2019-03-26T01:46:24.117Z,44.46
2019-03-26T01:51:27.580Z,44.42
2019-03-26T01:56:31.040Z,44.44
2019-03-26T02:01:34.503Z,44.42
2019-03-26T02:06:37.960Z,44.41
2019-03-26T02:11:41.429Z,44.47
2019-03-26T02:16:44.890Z,44.37
2019-03-26T02:21:48.360Z,44.44
2019-03-26T02:26:51.833Z,44.46
2019-03-26T02:31:55.283Z,44.44
2019-03-26T02:36:58.783Z,44.47
2019-03-26T02:42:02.227Z,44.51
2019-03-26T02:47:05.697Z,44.49
2019-03-26T02:52:09.165Z,44.53
2019-03-26T02:57:12.630Z,44.53
2019-03-26T03:02:16.101Z,44.51
2019-03-26T03:07:19.569Z,44.47
2019-03-26T03:12:23.023Z,44.55
2019-03-26T03:17:26.486Z,44.54
2019-03-26T03:22:30.325Z,44.52
2019-03-26T03:27:33.786Z,44.51
2019-03-26T03:32:37.255Z,44.56
2019-03-26T03:37:40.724Z,44.52
2019-03-26T03:42:44.193Z,44.48
2019-03-26T03:47:48.289Z,44.55
2019-03-26T03:52:52.091Z,44.50
2019-03-26T03:57:58.606Z,44.52
2019-03-26T04:03:03.509Z,44.59
2019-03-26T04:08:06.979Z,44.57
2019-03-26T04:13:10.433Z,44.53
2019-03-26T04:18:13.985Z,44.78
2019-03-26T04:23:17.432Z,44.78
2019-03-26T04:28:20.905Z,44.58
2019-03-26T04:33:24.370Z,44.58
2019-03-26T04:38:27.825Z,44.56
2019-03-26T04:43:31.283Z,44.58
2019-03-26T04:48:34.744Z,44.79
2019-03-26T04:53:38.373Z,44.84
2019-03-26T04:58:43.947Z,44.88
2019-03-26T05:03:47.010Z,44.99
2019-03-26T05:08:50.475Z,45.09
2019-03-26T05:13:53.932Z,45.06
2019-03-26T05:18:57.388Z,45.13
2019-03-26T05:24:00.844Z,45.17
2019-03-26T05:29:04.367Z,45.10
2019-03-26T05:34:07.827Z,45.16
2019-03-26T05:39:11.297Z,45.08
2019-03-26T05:44:14.738Z,45.10
2019-03-26T05:49:18.200Z,45.07
2019-03-26T05:54:21.655Z,45.08
2019-03-26T05:59:25.111Z,45.07
2019-03-26T06:04:28.663Z,45.04
2019-03-26T06:09:32.107Z,45.01
2019-03-26T06:14:35.564Z,44.98
2019-03-26T06:19:39.019Z,44.96
2019-03-26T06:24:42.476Z,44.94
2019-03-26T06:29:45.942Z,44.91
2019-03-26T06:34:49.396Z,44.87
2019-03-26T06:39:52.861Z,44.86
2019-03-26T06:44:56.324Z,44.89
2019-03-26T06:49:59.784Z,44.84
2019-03-26T06:55:04.487Z,44.77
2019-03-26T07:00:10.289Z,44.77
2019-03-26T07:05:13.817Z,44.73
2019-03-26T07:10:20.331Z,44.75
2019-03-26T07:15:23.787Z,44.70
2019-03-26T07:20:27.246Z,44.66
2019-03-26T07:25:30.704Z,44.65
2019-03-26T07:30:42.362Z,44.56
2019-03-26T07:35:45.825Z,44.56
2019-03-26T07:40:49.283Z,44.56
2019-03-26T07:45:52.742Z,44.50
2019-03-26T07:50:56.204Z,40.92
2019-03-26T07:55:59.676Z,37.68
2019-03-26T08:01:03.144Z,35.82
2019-03-26T08:06:06.594Z,35.99
2019-03-26T08:11:10.059Z,32.71
2019-03-26T08:16:13.547Z,31.49
2019-03-26T08:21:16.982Z,31.18
2019-03-26T08:26:20.440Z,32.91
2019-03-26T08:31:23.903Z,34.45
2019-03-26T08:36:27.361Z,35.57
2019-03-26T08:41:30.828Z,36.49
2019-03-26T08:46:34.287Z,37.26
2019-03-26T08:51:37.746Z,37.71
2019-03-26T08:56:41.215Z,38.33
2019-03-26T09:01:44.675Z,38.78
2019-03-26T09:06:48.140Z,39.04
2019-03-26T09:11:51.592Z,39.10
2019-03-26T09:16:55.054Z,39.30
2019-03-26T09:21:58.538Z,39.46
2019-03-26T09:27:02.027Z,39.83
2019-03-26T09:32:05.490Z,39.83
2019-03-26T09:37:08.971Z,39.99
2019-03-26T09:42:12.453Z,40.21
2019-03-26T09:47:16.781Z,40.36
2019-03-26T09:52:20.347Z,40.44
2019-03-26T09:57:23.808Z,40.59
2019-03-26T10:02:27.264Z,40.61
2019-03-26T10:07:30.731Z,40.70
2019-03-26T10:12:34.190Z,40.72
2019-03-26T10:17:37.922Z,40.52
2019-03-26T10:22:41.389Z,40.49
2019-03-26T10:27:44.850Z,40.84
2019-03-26T10:32:48.316Z,41.13
2019-03-26T10:37:51.779Z,40.95
2019-03-26T10:42:55.231Z,41.00
2019-03-26T10:47:59.028Z,40.98
2019-03-26T10:53:02.491Z,41.00
2019-03-26T10:58:05.963Z,41.01
2019-03-26T11:03:09.413Z,40.94
2019-03-26T11:08:12.880Z,41.19
2019-03-26T11:13:16.341Z,41.00
2019-03-26T11:18:19.808Z,40.77
2019-03-26T11:23:23.273Z,40.69
2019-03-26T11:28:26.728Z,40.60
2019-03-26T11:33:30.188Z,40.88
2019-03-26T11:38:33.656Z,41.24
2019-03-26T11:43:37.113Z,40.99
2019-03-26T11:48:40.571Z,40.91
2019-03-26T11:53:44.027Z,40.87
2019-03-26T11:58:47.484Z,40.90
2019-03-26T12:03:50.943Z,40.88
2019-03-26T12:08:54.434Z,40.92
2019-03-26T12:13:57.891Z,40.96
2019-03-26T12:19:01.354Z,40.99
2019-03-26T12:24:04.808Z,41.08
2019-03-26T12:29:08.270Z,41.26
2019-03-26T12:34:11.751Z,41.41
2019-03-26T12:39:15.228Z,41.60
2019-03-26T12:44:18.688Z,41.47
2019-03-26T12:49:22.156Z,42.26
2019-03-26T12:54:25.626Z,38.97
2019-03-26T12:59:29.096Z,27.91
2019-03-26T13:04:32.557Z,29.79
2019-03-26T13:09:36.023Z,31.53
2019-03-26T13:14:39.483Z,33.25
2019-03-26T13:19:42.945Z,34.84
2019-03-26T13:24:46.409Z,36.19
2019-03-26T13:29:49.874Z,36.79
2019-03-26T13:34:54.197Z,37.43
2019-03-26T13:39:57.662Z,37.90
2019-03-26T13:45:01.140Z,38.95
2019-03-26T13:50:06.630Z,39.78
2019-03-26T13:55:10.428Z,40.40
2019-03-26T14:00:14.431Z,41.42
2019-03-26T14:05:25.809Z,41.54
2019-03-26T14:10:40.240Z,42.10
2019-03-26T14:15:34.619Z,42.77
2019-03-26T14:20:38.101Z,43.32
2019-03-26T14:25:41.575Z,43.52
2019-03-26T14:30:45.122Z,43.29
2019-03-26T14:35:48.606Z,42.83
2019-03-26T14:40:55.260Z,42.70
2019-03-26T14:45:57.297Z,42.49
2019-03-26T14:51:00.777Z,42.47
2019-03-26T14:56:04.264Z,43.05
2019-03-26T15:01:07.743Z,42.89
2019-03-26T15:06:11.222Z,43.09
2019-03-26T15:11:14.701Z,42.96
2019-03-26T15:16:18.262Z,43.04
2019-03-26T15:21:21.741Z,42.94
2019-03-26T15:26:25.221Z,42.93
2019-03-26T15:31:28.701Z,42.91
2019-03-26T15:36:32.183Z,42.92
2019-03-26T15:41:35.654Z,42.95
2019-03-26T15:46:39.133Z,42.97
2019-03-26T15:51:42.610Z,43.01
2019-03-26T15:56:46.088Z,43.04
2019-03-26T16:01:49.557Z,43.05
2019-03-26T16:06:53.011Z,43.09
2019-03-26T16:11:56.471Z,43.13
2019-03-26T16:16:59.928Z,43.15
2019-03-26T16:22:03.391Z,43.13
2019-03-26T16:27:06.850Z,43.04
2019-03-26T16:32:10.314Z,42.97
2019-03-26T16:37:13.777Z,42.92
2019-03-26T16:42:17.237Z,42.89
2019-03-26T16:47:20.699Z,42.84
2019-03-26T16:52:26.631Z,42.81
2019-03-26T16:57:29.335Z,43.19
2019-03-26T17:02:32.799Z,43.25
2019-03-26T17:07:36.262Z,43.45
2019-03-26T17:12:39.719Z,43.56
2019-03-26T17:17:43.177Z,43.54
2019-03-26T17:22:46.636Z,43.68
2019-03-26T17:27:50.098Z,44.21
2019-03-26T17:32:53.628Z,44.76
2019-03-26T17:37:59.819Z,45.42
2019-03-26T17:43:02.276Z,45.50
2019-03-26T17:48:05.732Z,45.43
2019-03-26T17:53:09.192Z,45.59
2019-03-26T17:58:12.652Z,45.67
2019-03-26T18:03:26.166Z,45.60
2019-03-26T18:08:21.373Z,45.37
2019-03-26T18:13:24.872Z,45.24
2019-03-26T18:18:28.345Z,45.14
2019-03-26T18:23:31.796Z,45.05
2019-03-26T18:28:35.257Z,45.00
2019-03-26T18:33:38.726Z,44.91
2019-03-26T18:38:42.183Z,44.83
2019-03-26T18:43:45.645Z,44.79
2019-03-26T18:48:49.105Z,44.79
2019-03-26T18:53:52.564Z,44.75
2019-03-26T18:58:56.037Z,44.82
2019-03-26T19:03:59.484Z,44.72
2019-03-26T19:09:03.285Z,44.68
2019-03-26T19:14:06.747Z,44.64
2019-03-26T19:19:10.205Z,44.56
2019-03-26T19:24:13.669Z,44.57
2019-03-26T19:29:17.128Z,44.51
2019-03-26T19:34:20.583Z,44.52
2019-03-26T19:39:24.046Z,44.49
2019-03-26T19:44:27.504Z,44.44
2019-03-26T19:49:30.970Z,44.36
2019-03-26T19:54:34.424Z,44.25
2019-03-26T19:59:37.973Z,44.14
2019-03-26T20:04:41.432Z,44.06
2019-03-26T20:09:44.889Z,43.98
2019-03-26T20:14:48.359Z,43.92
2019-03-26T20:19:51.816Z,43.86
2019-03-26T20:24:55.281Z,43.79
2019-03-26T20:29:58.743Z,43.69
2019-03-26T20:35:02.199Z,43.60
2019-03-26T20:40:09.007Z,43.55
2019-03-26T20:45:14.526Z,43.50
2019-03-26T20:50:20.181Z,43.46
2019-03-26T20:55:29.568Z,43.41
2019-03-26T21:00:40.468Z,43.38
2019-03-26T21:05:43.931Z,43.33
2019-03-26T21:10:47.389Z,43.32
2019-03-26T21:15:57.173Z,43.27
2019-03-26T21:20:56.037Z,43.23
2019-03-26T21:25:59.499Z,43.18
2019-03-26T21:31:02.961Z,43.17
2019-03-26T21:36:06.421Z,43.24
2019-03-26T21:41:09.912Z,43.29
2019-03-26T21:46:13.339Z,43.32
2019-03-26T21:51:16.796Z,43.35
2019-03-26T21:56:20.261Z,43.37
2019-03-26T22:01:23.717Z,43.40
2019-03-26T22:06:27.176Z,43.41
2019-03-26T22:11:30.631Z,43.45
2019-03-26T22:16:34.092Z,43.52
2019-03-26T22:21:37.558Z,43.58
2019-03-26T22:26:41.015Z,43.60
2019-03-26T22:31:44.472Z,43.63
2019-03-26T22:36:47.927Z,43.63
2019-03-26T22:41:51.388Z,43.67
2019-03-26T22:46:54.847Z,43.68
2019-03-26T22:51:58.303Z,43.73
2019-03-26T22:57:01.760Z,43.77
2019-03-26T23:02:05.219Z,43.79
2019-03-26T23:07:08.680Z,43.83
2019-03-26T23:12:12.134Z,43.85
2019-03-26T23:17:15.592Z,43.85
2019-03-26T23:22:19.047Z,43.88
2019-03-26T23:27:22.521Z,43.89
2019-03-26T23:32:25.968Z,43.89
2019-03-26T23:37:29.427Z,43.92
2019-03-26T23:42:32.885Z,43.92
2019-03-26T23:47:36.339Z,43.94
2019-03-26T23:52:39.795Z,43.97
2019-03-26T23:57:43.256Z,43.99
